Time;durP1;ratioP1;P1;durP2;ratioP2;P2;SDS_P1;SDS_P2;PMS_P1;PMS_P2;Temp;Humidity;BMP_temperature;BMP_pressure;BME280_temperature;BME280_humidity;BME280_pressure;Samples;Min_cycle;Max_cycle;Signal;HPM_P1;HPM_P2
2023/03/26 00:01:22;;;;;;;9.40;3.37;;;8.80;99.90;;;;;;5003033;28;20973;-81
2023/03/26 00:03:52;;;;;;;13.63;4.30;;;8.70;99.90;;;;;;5004347;28;20456;-81
2023/03/26 00:06:21;;;;;;;10.43;3.50;;;8.70;99.90;;;;;;5004047;28;20497;-82
2023/03/26 00:08:49;;;;;;;7.53;3.10;;;8.80;99.90;;;;;;5003600;28;20491;-80
2023/03/26 00:11:20;;;;;;;6.17;3.10;;;8.80;99.90;;;;;;5003093;28;20494;-81
2023/03/26 00:13:48;;;;;;;14.30;3.20;;;8.80;99.90;;;;;;5004273;28;20930;-83
2023/03/26 00:16:17;;;;;;;20.13;3.57;;;8.80;99.90;;;;;;5003865;28;20522;-80
2023/03/26 00:18:44;;;;;;;11.93;4.13;;;8.80;99.90;;;;;;5003617;28;20476;-85
2023/03/26 00:21:13;;;;;;;8.40;3.30;;;8.80;99.90;;;;;;5000947;28;20955;-79
2023/03/26 00:23:41;;;;;;;13.63;4.47;;;8.80;99.90;;;;;;5025875;23;20479;-80
2023/03/26 00:26:10;;;;;;;11.40;3.03;;;8.90;99.90;;;;;;5008513;28;20940;-83
2023/03/26 00:28:40;;;;;;;19.10;3.57;;;8.90;99.90;;;;;;5003111;28;20575;-82
2023/03/26 00:31:09;;;;;;;17.87;4.53;;;8.90;99.90;;;;;;5007902;28;20456;-82
2023/03/26 00:33:37;;;;;;;16.73;4.30;;;8.90;99.90;;;;;;5017165;28;20474;-82
2023/03/26 00:36:08;;;;;;;10.77;3.00;;;8.90;99.90;;;;;;5016179;28;20469;-83
2023/03/26 00:38:37;;;;;;;12.20;2.60;;;8.90;99.90;;;;;;5012031;28;22385;-83
2023/03/26 00:41:06;;;;;;;11.67;3.30;;;9.00;99.90;;;;;;5012823;28;20520;-82
2023/03/26 00:43:34;;;;;;;14.13;3.23;;;8.90;99.90;;;;;;5010449;28;20450;-81
2023/03/26 00:46:03;;;;;;;18.93;3.07;;;8.90;99.90;;;;;;5017466;28;20450;-82
2023/03/26 00:48:30;;;;;;;15.40;3.33;;;8.90;99.90;;;;;;5015517;28;21041;-83
2023/03/26 00:50:57;;;;;;;8.90;3.40;;;8.80;99.90;;;;;;5017890;28;20463;-83
2023/03/26 00:53:24;;;;;;;18.03;4.63;;;8.90;99.90;;;;;;5018096;28;20455;-82
2023/03/26 00:55:51;;;;;;;7.43;2.90;;;8.90;99.90;;;;;;5018865;28;20548;-83
2023/03/26 00:58:21;;;;;;;15.33;3.77;;;9.00;99.90;;;;;;5018291;28;20449;-83
2023/03/26 01:00:51;;;;;;;11.03;3.03;;;8.90;99.90;;;;;;5019772;28;20486;-82
2023/03/26 01:03:20;;;;;;;16.60;3.33;;;8.80;99.90;;;;;;5021103;28;20825;-83
2023/03/26 01:05:51;;;;;;;12.20;4.20;;;8.80;99.90;;;;;;5023744;28;20475;-83
2023/03/26 01:08:30;;;;;;;13.20;3.43;;;8.90;99.90;;;;;;5023007;28;20502;-83
2023/03/26 01:11:04;;;;;;;11.20;3.00;;;8.90;99.90;;;;;;5022793;28;20455;-83
2023/03/26 01:13:34;;;;;;;15.03;3.67;;;8.90;99.90;;;;;;5022738;28;20455;-83
2023/03/26 01:16:01;;;;;;;13.00;2.87;;;8.90;99.90;;;;;;5021501;28;20514;-83
2023/03/26 01:18:39;;;;;;;14.20;3.20;;;8.90;99.90;;;;;;5021888;28;20459;-83
2023/03/26 01:21:08;;;;;;;24.70;3.87;;;8.90;99.90;;;;;;5021175;28;20453;-84
2023/03/26 01:23:41;;;;;;;16.50;3.97;;;8.90;99.90;;;;;;5021797;28;20920;-82
2023/03/26 01:26:18;;;;;;;19.80;4.30;;;8.80;99.90;;;;;;5022403;28;20450;-83
2023/03/26 01:28:45;;;;;;;12.20;4.20;;;8.80;99.90;;;;;;5022322;28;20566;-83
2023/03/26 01:31:18;;;;;;;15.40;3.80;;;8.80;99.90;;;;;;5021093;28;20547;-83
2023/03/26 01:33:52;;;;;;;13.57;4.07;;;8.90;99.90;;;;;;5021747;28;20479;-84
2023/03/26 01:36:25;;;;;;;12.50;3.60;;;8.90;99.90;;;;;;5022711;28;20541;-83
2023/03/26 01:38:59;;;;;;;19.07;3.90;;;9.00;99.90;;;;;;5021699;28;20463;-84
2023/03/26 01:41:33;;;;;;;13.90;5.13;;;9.00;99.90;;;;;;5017758;28;20496;-83
2023/03/26 01:44:04;;;;;;;13.73;3.47;;;9.00;99.90;;;;;;5023040;28;20484;-83
2023/03/26 01:46:35;;;;;;;17.70;3.20;;;9.10;99.90;;;;;;4998498;28;20466;-83
2023/03/26 01:49:03;;;;;;;14.17;3.20;;;9.00;99.90;;;;;;5019442;28;20474;-83
2023/03/26 01:51:32;;;;;;;16.30;4.17;;;9.10;99.90;;;;;;5026971;28;20595;-83
2023/03/26 01:54:00;;;;;;;20.57;3.63;;;9.00;99.90;;;;;;5024303;28;20537;-83
2023/03/26 01:56:35;;;;;;;18.23;4.07;;;9.00;99.90;;;;;;5023540;28;20466;-83
2023/03/26 01:59:16;;;;;;;19.47;4.90;;;9.00;99.90;;;;;;5023587;28;20534;-84
2023/03/26 02:01:48;;;;;;;10.37;3.20;;;8.90;99.90;;;;;;4974685;28;20452;-83
2023/03/26 02:04:24;;;;;;;12.27;3.07;;;9.00;99.90;;;;;;4868370;28;20484;-82
2023/03/26 02:06:57;;;;;;;16.97;3.73;;;9.10;99.90;;;;;;4865797;28;20455;-82
2023/03/26 02:09:28;;;;;;;20.83;3.50;;;9.10;99.90;;;;;;5003952;28;20500;-83
2023/03/26 02:11:59;;;;;;;20.67;3.80;;;9.10;99.90;;;;;;5004135;28;20448;-84
2023/03/26 02:14:25;;;;;;;24.00;3.63;;;9.00;99.90;;;;;;5002045;28;20524;-84
2023/03/26 02:16:52;;;;;;;9.87;3.07;;;9.10;99.90;;;;;;5021466;28;20476;-84
2023/03/26 02:19:20;;;;;;;12.23;5.70;;;9.00;99.90;;;;;;5020552;28;20825;-84
2023/03/26 02:21:50;;;;;;;14.73;3.40;;;8.90;99.90;;;;;;5000995;28;20453;-84
2023/03/26 02:24:17;;;;;;;14.37;3.23;;;8.80;99.90;;;;;;5002193;28;20486;-84
2023/03/26 02:26:44;;;;;;;11.83;3.60;;;8.70;99.90;;;;;;5016720;28;20531;-84
2023/03/26 02:29:13;;;;;;;13.30;3.40;;;8.60;99.90;;;;;;5003209;28;20574;-83
2023/03/26 02:31:42;;;;;;;16.37;3.23;;;8.50;99.90;;;;;;5011963;28;20444;-84
2023/03/26 02:34:08;;;;;;;12.00;3.60;;;8.50;99.90;;;;;;5022638;28;20506;-84
2023/03/26 02:36:35;;;;;;;14.20;3.60;;;8.40;99.90;;;;;;5022818;28;20546;-83
2023/03/26 02:39:02;;;;;;;17.93;3.73;;;8.40;99.90;;;;;;5022312;28;20479;-83
2023/03/26 02:41:29;;;;;;;17.40;3.70;;;8.50;99.90;;;;;;5020993;28;20448;-83
2023/03/26 02:43:56;;;;;;;16.40;3.03;;;8.50;99.90;;;;;;5024848;28;20775;-83
2023/03/26 02:46:24;;;;;;;13.10;4.03;;;8.50;99.90;;;;;;5026380;28;20544;-82
2023/03/26 02:48:51;;;;;;;17.93;4.20;;;8.40;99.90;;;;;;5024944;28;20486;-83
2023/03/26 02:51:18;;;;;;;12.53;3.50;;;8.30;99.90;;;;;;5026119;28;20477;-83
2023/03/26 02:53:46;;;;;;;11.30;3.83;;;8.30;99.90;;;;;;5027100;28;20461;-83
2023/03/26 02:56:13;;;;;;;16.80;3.63;;;8.30;99.90;;;;;;5026383;28;20455;-83
2023/03/26 02:58:39;;;;;;;14.57;2.90;;;8.40;99.90;;;;;;5026477;28;20447;-83
2023/03/26 03:01:06;;;;;;;14.10;3.30;;;8.50;99.90;;;;;;5025123;28;20460;-83
2023/03/26 03:03:35;;;;;;;19.27;4.77;;;8.60;99.90;;;;;;5026135;28;20450;-82
2023/03/26 03:06:02;;;;;;;11.60;3.03;;;8.70;99.90;;;;;;5026061;28;20456;-83
2023/03/26 03:08:29;;;;;;;12.17;3.97;;;8.70;99.90;;;;;;5024970;28;20481;-83
2023/03/26 03:10:57;;;;;;;15.10;4.87;;;8.80;99.90;;;;;;5023365;28;20451;-82
2023/03/26 03:13:24;;;;;;;9.47;2.80;;;8.80;99.90;;;;;;5023021;28;20448;-83
2023/03/26 03:15:51;;;;;;;14.80;3.63;;;8.80;99.90;;;;;;5020572;28;20535;-83
2023/03/26 03:18:18;;;;;;;12.37;4.23;;;8.80;99.90;;;;;;5020198;28;20441;-83
2023/03/26 03:20:46;;;;;;;15.40;3.20;;;8.80;99.90;;;;;;5015788;28;20459;-83
2023/03/26 03:23:15;;;;;;;9.27;2.43;;;8.70;99.90;;;;;;5015735;28;20844;-83
2023/03/26 03:25:42;;;;;;;18.17;4.10;;;8.70;99.90;;;;;;5014975;28;20842;-83
2023/03/26 03:28:09;;;;;;;19.53;3.83;;;8.60;99.90;;;;;;5015372;28;20446;-83
2023/03/26 03:30:36;;;;;;;14.47;4.10;;;8.50;99.90;;;;;;5014843;28;20570;-83
2023/03/26 03:33:04;;;;;;;20.33;4.63;;;8.50;99.90;;;;;;5015393;28;20443;-83
2023/03/26 03:35:32;;;;;;;15.80;3.83;;;8.40;99.90;;;;;;5027826;28;20606;-84
2023/03/26 03:38:01;;;;;;;12.60;2.50;;;8.30;99.90;;;;;;5023727;28;20448;-83
2023/03/26 03:40:28;;;;;;;14.33;4.20;;;8.20;99.90;;;;;;5024365;28;20457;-83
2023/03/26 03:42:55;;;;;;;13.10;3.80;;;8.10;99.90;;;;;;5023991;28;20493;-83
2023/03/26 03:45:22;;;;;;;15.90;4.03;;;8.00;99.90;;;;;;5023046;28;20887;-83
2023/03/26 03:47:49;;;;;;;16.20;3.80;;;7.90;99.90;;;;;;5022241;28;20454;-84
2023/03/26 03:50:15;;;;;;;11.43;3.10;;;7.90;99.90;;;;;;5022316;28;20483;-84
2023/03/26 03:52:42;;;;;;;16.27;3.77;;;7.80;99.90;;;;;;5022760;28;20829;-84
2023/03/26 03:55:12;;;;;;;6.97;2.70;;;7.80;99.90;;;;;;5023143;28;20507;-83
2023/03/26 03:57:40;;;;;;;21.93;3.40;;;7.70;99.90;;;;;;5023016;28;20519;-84
2023/03/26 04:00:08;;;;;;;13.50;3.57;;;7.70;99.90;;;;;;5018301;28;20486;-83
2023/03/26 04:02:36;;;;;;;15.77;3.57;;;7.70;99.90;;;;;;5016811;28;20446;-82
2023/03/26 04:05:03;;;;;;;9.50;3.97;;;7.60;99.90;;;;;;5017017;28;20473;-83
2023/03/26 04:07:32;;;;;;;14.40;3.73;;;7.70;99.90;;;;;;5016060;28;20461;-84
2023/03/26 04:10:01;;;;;;;13.60;3.57;;;7.80;99.90;;;;;;5017133;28;20482;-82
2023/03/26 04:12:30;;;;;;;20.13;3.43;;;7.80;99.90;;;;;;5017096;28;20453;-82
2023/03/26 04:14:58;;;;;;;12.73;4.00;;;7.90;99.90;;;;;;5016392;28;20474;-82
2023/03/26 04:17:25;;;;;;;21.80;3.53;;;7.80;99.90;;;;;;5016965;28;20960;-82
2023/03/26 04:19:53;;;;;;;21.20;3.67;;;7.90;99.90;;;;;;5017117;28;20444;-83
2023/03/26 04:22:21;;;;;;;17.73;3.63;;;8.10;99.90;;;;;;5016074;28;20938;-82
2023/03/26 04:24:49;;;;;;;9.93;3.10;;;8.10;99.90;;;;;;5015675;28;21019;-81
2023/03/26 04:27:20;;;;;;;13.83;2.97;;;8.20;99.90;;;;;;5016545;28;20478;-82
2023/03/26 04:29:49;;;;;;;9.60;3.17;;;8.20;99.90;;;;;;5015859;28;20551;-84
2023/03/26 04:32:23;;;;;;;9.50;3.27;;;8.30;99.90;;;;;;4995894;28;20451;-82
2023/03/26 04:34:51;;;;;;;7.37;2.73;;;8.30;99.90;;;;;;5005852;28;20518;-82
2023/03/26 04:37:26;;;;;;;13.73;3.17;;;8.40;99.90;;;;;;5016092;28;20451;-82
2023/03/26 04:39:53;;;;;;;9.67;2.20;;;8.40;99.90;;;;;;5015457;28;20466;-82
2023/03/26 04:42:20;;;;;;;7.50;3.17;;;8.30;99.90;;;;;;5015599;28;20878;-82
2023/03/26 04:44:49;;;;;;;11.73;2.60;;;8.30;99.90;;;;;;5016786;28;20494;-81
2023/03/26 04:47:16;;;;;;;9.40;3.33;;;8.30;99.90;;;;;;5016518;28;20449;-83
2023/03/26 04:49:44;;;;;;;11.80;2.90;;;8.20;99.90;;;;;;5014795;28;20485;-82
2023/03/26 04:52:12;;;;;;;9.10;2.73;;;8.20;99.90;;;;;;5016471;28;20460;-81
2023/03/26 04:54:39;;;;;;;9.13;2.87;;;8.20;99.90;;;;;;5016585;28;20999;-83
2023/03/26 04:57:09;;;;;;;12.73;3.20;;;8.20;99.90;;;;;;5016605;28;20445;-82
2023/03/26 04:59:36;;;;;;;10.80;3.60;;;8.20;99.90;;;;;;5015947;28;20451;-83
2023/03/26 05:02:07;;;;;;;12.17;3.63;;;8.20;99.90;;;;;;5015112;28;20446;-81
2023/03/26 05:04:35;;;;;;;10.87;3.70;;;8.20;99.90;;;;;;5021870;28;20480;-82
2023/03/26 05:07:02;;;;;;;14.67;3.20;;;8.20;99.90;;;;;;5015418;28;20582;-83
2023/03/26 05:09:29;;;;;;;10.53;3.50;;;8.30;99.90;;;;;;5015569;28;20949;-83
2023/03/26 05:11:57;;;;;;;11.80;3.23;;;8.30;99.90;;;;;;5016439;28;20468;-84
2023/03/26 05:14:24;;;;;;;7.63;3.07;;;8.40;99.90;;;;;;5017255;28;20471;-81
2023/03/26 05:16:53;;;;;;;7.80;2.60;;;8.40;99.90;;;;;;5017143;28;20444;-83
2023/03/26 05:19:21;;;;;;;6.97;2.90;;;8.50;99.90;;;;;;5026223;28;20450;-83
2023/03/26 05:21:48;;;;;;;13.47;2.90;;;8.50;99.90;;;;;;5022787;28;20447;-83
2023/03/26 05:24:15;;;;;;;8.77;2.87;;;8.60;99.90;;;;;;5021582;28;21041;-84
2023/03/26 05:26:41;;;;;;;10.33;2.70;;;8.70;99.90;;;;;;5021506;28;21011;-84
2023/03/26 05:29:08;;;;;;;9.90;2.73;;;8.70;99.90;;;;;;5021051;28;20453;-85
2023/03/26 05:31:36;;;;;;;5.60;2.63;;;8.80;99.90;;;;;;5020085;28;20454;-84
2023/03/26 05:34:03;;;;;;;10.93;2.47;;;8.80;99.90;;;;;;5019697;28;20475;-84
2023/03/26 05:36:31;;;;;;;9.87;2.67;;;8.80;99.90;;;;;;5019904;28;20443;-84
2023/03/26 05:38:58;;;;;;;10.87;3.20;;;8.80;99.90;;;;;;5018801;28;20462;-84
2023/03/26 05:41:25;;;;;;;7.30;2.27;;;8.80;99.90;;;;;;5017801;28;20449;-84
2023/03/26 05:43:52;;;;;;;19.50;4.63;;;8.90;99.90;;;;;;5018001;28;20598;-87
2023/03/26 05:46:21;;;;;;;13.57;3.53;;;8.90;99.90;;;;;;5015684;28;20448;-82
2023/03/26 05:48:48;;;;;;;12.73;2.90;;;8.90;99.90;;;;;;5014740;28;20459;-81
2023/03/26 05:51:15;;;;;;;10.33;3.07;;;8.90;99.90;;;;;;5020785;28;20483;-82
2023/03/26 05:53:44;;;;;;;9.20;3.03;;;8.80;99.90;;;;;;5021348;28;20475;-82
2023/03/26 05:56:10;;;;;;;10.63;2.30;;;8.80;99.90;;;;;;5021080;28;20526;-81
2023/03/26 05:58:38;;;;;;;11.60;3.73;;;8.90;99.90;;;;;;5020959;28;20459;-82
2023/03/26 06:01:07;;;;;;;13.93;2.77;;;8.90;99.90;;;;;;5020233;28;20451;-82
2023/03/26 06:03:35;;;;;;;8.13;2.30;;;9.00;99.90;;;;;;5021084;28;20454;-81
2023/03/26 06:06:03;;;;;;;10.67;2.67;;;9.00;99.90;;;;;;5022256;28;20455;-81
2023/03/26 06:08:31;;;;;;;17.70;2.77;;;9.00;99.90;;;;;;5020871;28;20510;-81
2023/03/26 06:11:06;;;;;;;8.53;2.60;;;9.10;99.90;;;;;;5020465;28;20490;-82
2023/03/26 06:13:33;;;;;;;11.37;3.30;;;9.00;99.90;;;;;;5020732;28;20840;-81
2023/03/26 06:16:00;;;;;;;12.17;3.73;;;9.00;99.90;;;;;;5019759;28;20539;-82
2023/03/26 06:18:27;;;;;;;10.83;2.73;;;9.10;99.90;;;;;;5021959;28;20894;-82
2023/03/26 06:20:54;;;;;;;9.67;3.67;;;9.10;99.90;;;;;;5020145;28;20551;-83
2023/03/26 06:23:22;;;;;;;16.77;3.27;;;9.10;99.90;;;;;;5020745;28;20451;-82
2023/03/26 06:25:48;;;;;;;9.97;2.40;;;9.10;99.90;;;;;;5029123;23;20853;-80
2023/03/26 06:28:17;;;;;;;9.03;2.70;;;9.10;99.90;;;;;;4995601;28;20457;-80
2023/03/26 06:30:44;;;;;;;9.33;2.70;;;9.10;99.90;;;;;;4997763;28;20492;-80
2023/03/26 06:33:11;;;;;;;18.33;3.10;;;9.20;99.90;;;;;;4999257;28;20969;-79
2023/03/26 06:35:38;;;;;;;6.57;2.73;;;9.00;99.90;;;;;;4996501;28;20474;-80
2023/03/26 06:38:06;;;;;;;10.70;3.00;;;9.00;99.90;;;;;;4999479;28;20478;-79
2023/03/26 06:40:33;;;;;;;8.53;3.83;;;9.10;99.90;;;;;;4993994;28;20995;-80
2023/03/26 06:43:00;;;;;;;5.33;2.17;;;9.20;99.90;;;;;;4996798;28;21018;-79
2023/03/26 06:45:29;;;;;;;10.30;3.10;;;9.20;99.90;;;;;;5000760;28;20469;-79
2023/03/26 06:47:56;;;;;;;9.53;2.30;;;9.30;99.90;;;;;;5000753;28;20464;-80
2023/03/26 06:50:22;;;;;;;15.67;2.70;;;9.20;99.90;;;;;;5000264;28;20484;-80
2023/03/26 06:52:50;;;;;;;9.50;2.77;;;9.30;99.90;;;;;;5001875;28;20459;-80
2023/03/26 06:55:17;;;;;;;16.47;2.93;;;9.30;99.90;;;;;;5003118;28;20461;-79
2023/03/26 06:57:47;;;;;;;15.70;3.50;;;9.30;99.90;;;;;;5007098;28;20463;-80
2023/03/26 07:00:15;;;;;;;8.10;2.10;;;9.20;99.90;;;;;;5012735;28;20436;-80
2023/03/26 07:02:43;;;;;;;5.80;2.03;;;9.20;99.90;;;;;;5003494;28;20848;-79
2023/03/26 07:05:10;;;;;;;8.80;2.90;;;9.20;99.90;;;;;;5003622;28;20472;-80
2023/03/26 07:07:37;;;;;;;7.40;2.50;;;9.30;99.90;;;;;;5005246;28;20892;-80
2023/03/26 07:10:05;;;;;;;9.97;2.90;;;9.40;99.90;;;;;;4999825;28;20489;-80
2023/03/26 07:12:32;;;;;;;8.17;2.53;;;9.50;99.90;;;;;;5000597;28;20443;-79
2023/03/26 07:15:00;;;;;;;10.30;2.70;;;9.60;99.90;;;;;;5000754;28;20843;-79
2023/03/26 07:17:27;;;;;;;9.80;2.50;;;9.50;99.90;;;;;;5000709;28;20451;-80
2023/03/26 07:19:57;;;;;;;9.43;2.00;;;9.60;99.90;;;;;;5000533;28;20459;-79
2023/03/26 07:22:25;;;;;;;7.57;2.23;;;9.60;99.90;;;;;;5000076;28;20463;-80
2023/03/26 07:24:52;;;;;;;10.87;3.30;;;9.60;99.90;;;;;;5000439;28;20567;-82
2023/03/26 07:27:37;;;;;;;7.47;2.70;;;9.70;99.90;;;;;;5000209;28;20457;-78
2023/03/26 07:30:07;;;;;;;8.30;2.80;;;9.70;99.90;;;;;;5000970;28;20485;-82
2023/03/26 07:32:42;;;;;;;9.40;2.43;;;9.60;99.90;;;;;;5001265;28;20467;-80
2023/03/26 07:35:19;;;;;;;5.70;2.37;;;9.60;99.90;;;;;;5001381;28;20484;-78
2023/03/26 07:38:01;;;;;;;8.57;3.07;;;9.60;99.90;;;;;;5000945;28;20441;-78
2023/03/26 07:40:52;;;;;;;12.10;2.93;;;9.70;99.90;;;;;;4998105;28;20445;-79
2023/03/26 07:43:32;;;;;;;8.67;2.33;;;9.70;99.90;;;;;;4996962;28;20814;-79
2023/03/26 07:45:59;;;;;;;10.03;2.30;;;9.70;99.90;;;;;;5007368;28;20533;-78
2023/03/26 07:48:32;;;;;;;7.67;2.47;;;9.80;99.90;;;;;;5002322;28;20610;-79
2023/03/26 07:51:02;;;;;;;12.30;2.57;;;9.90;99.90;;;;;;4989715;28;20505;-79
2023/03/26 07:53:29;;;;;;;12.53;3.07;;;10.00;99.90;;;;;;4993334;28;20451;-79
2023/03/26 07:56:01;;;;;;;5.93;2.30;;;9.90;99.90;;;;;;4993236;28;20473;-79
2023/03/26 07:58:45;;;;;;;10.67;2.57;;;9.90;99.90;;;;;;4993389;28;20451;-79
2023/03/26 08:01:19;;;;;;;9.53;2.77;;;9.90;99.90;;;;;;4992801;28;20445;-80
2023/03/26 08:04:05;;;;;;;6.80;2.63;;;9.80;99.90;;;;;;4990288;28;20474;-80
2023/03/26 08:06:36;;;;;;;12.17;3.87;;;9.70;99.90;;;;;;4990096;28;20471;-80
2023/03/26 08:09:12;;;;;;;12.80;2.73;;;9.80;99.90;;;;;;4987674;28;20466;-81
2023/03/26 08:11:48;;;;;;;9.80;2.70;;;9.70;99.90;;;;;;4997048;28;20576;-81
2023/03/26 08:14:27;;;;;;;10.93;2.50;;;9.80;99.90;;;;;;5007698;28;20463;-81
2023/03/26 08:16:58;;;;;;;9.27;2.43;;;9.70;99.90;;;;;;5008541;28;20471;-83
2023/03/26 08:19:41;;;;;;;10.47;2.90;;;9.80;99.90;;;;;;5010594;28;20514;-81
2023/03/26 08:22:16;;;;;;;9.43;2.23;;;9.70;99.90;;;;;;5009162;28;20494;-81
2023/03/26 08:24:56;;;;;;;12.10;2.97;;;9.60;99.90;;;;;;5009313;28;20965;-81
2023/03/26 08:27:29;;;;;;;8.30;2.80;;;9.50;99.90;;;;;;5009647;28;20562;-80
2023/03/26 08:30:01;;;;;;;7.60;2.67;;;9.60;99.90;;;;;;5007638;28;20454;-81
2023/03/26 08:32:28;;;;;;;15.67;2.60;;;9.60;99.90;;;;;;5011178;28;20438;-81
2023/03/26 08:34:56;;;;;;;7.27;3.40;;;9.70;99.90;;;;;;5011404;28;21057;-82
2023/03/26 08:37:26;;;;;;;10.40;3.20;;;9.70;99.90;;;;;;5010941;28;20454;-81
2023/03/26 08:39:53;;;;;;;12.20;2.97;;;9.70;99.90;;;;;;5009788;28;20446;-83
2023/03/26 08:42:58;;;;;;;15.47;3.43;;;9.70;99.90;;;;;;4996321;28;20465;-83
2023/03/26 08:46:07;;;;;;;9.90;2.83;;;9.80;99.90;;;;;;4991545;28;20512;-81
2023/03/26 08:49:01;;;;;;;13.40;2.97;;;9.80;99.90;;;;;;4956061;29;20526;-82
2023/03/26 08:52:26;;;;;;;10.50;2.73;;;9.70;99.90;;;;;;4953388;29;20483;-81
2023/03/26 08:55:24;;;;;;;10.47;3.73;;;9.60;99.90;;;;;;4920787;29;20497;-83
2023/03/26 08:58:25;;;;;;;10.07;2.53;;;9.60;99.90;;;;;;4904804;29;20458;-82
2023/03/26 09:01:22;;;;;;;6.00;2.70;;;9.70;99.90;;;;;;4996323;28;20431;-82
2023/03/26 09:04:16;;;;;;;12.10;2.97;;;9.80;99.90;;;;;;5125091;27;21097;-84
2023/03/26 09:07:16;;;;;;;8.90;3.60;;;9.70;99.90;;;;;;5098639;28;21052;-85
2023/03/26 09:10:16;;;;;;;6.83;2.70;;;9.80;99.90;;;;;;5071011;28;20450;-84
2023/03/26 09:13:13;;;;;;;8.60;2.53;;;9.90;99.90;;;;;;5093070;28;20540;-85
2023/03/26 09:16:05;;;;;;;6.27;2.63;;;9.90;99.90;;;;;;5096695;28;20465;-85
2023/03/26 09:18:57;;;;;;;8.80;2.90;;;9.80;99.90;;;;;;5113698;28;20460;-84
2023/03/26 09:22:05;;;;;;;12.07;2.67;;;9.80;99.90;;;;;;5112731;28;20464;-84
2023/03/26 09:25:12;;;;;;;7.53;2.47;;;9.80;99.90;;;;;;5101837;28;20477;-84
2023/03/26 09:27:51;;;;;;;6.97;3.50;;;9.90;99.90;;;;;;5087012;28;20612;-83
2023/03/26 09:30:37;;;;;;;9.30;3.03;;;9.90;99.90;;;;;;5090846;28;20456;-84
2023/03/26 09:33:55;;;;;;;9.77;3.17;;;9.90;99.90;;;;;;5088294;28;20459;-84
2023/03/26 09:36:40;;;;;;;10.30;3.03;;;9.90;99.90;;;;;;4994947;28;20510;-81
2023/03/26 09:39:18;;;;;;;11.33;3.30;;;10.00;99.90;;;;;;5000108;28;20844;-84
2023/03/26 09:42:02;;;;;;;3.80;2.37;;;10.00;99.90;;;;;;5052736;28;20455;-84
2023/03/26 09:45:00;;;;;;;11.70;3.00;;;10.00;99.90;;;;;;5089371;28;20446;-81
2023/03/26 09:48:04;;;;;;;6.87;2.73;;;10.00;99.90;;;;;;5089039;28;20442;-84
2023/03/26 09:50:45;;;;;;;10.13;2.90;;;10.00;99.90;;;;;;5086615;28;20456;-82
2023/03/26 09:53:44;;;;;;;8.37;2.60;;;9.90;99.90;;;;;;5090190;28;20453;-84
2023/03/26 09:56:23;;;;;;;5.20;2.20;;;10.00;99.90;;;;;;5090107;28;20489;-84
2023/03/26 09:59:11;;;;;;;8.40;2.97;;;10.00;99.90;;;;;;5091350;28;20945;-84
2023/03/26 10:01:46;;;;;;;8.40;2.70;;;10.00;99.90;;;;;;5075695;28;20530;-85
2023/03/26 10:04:39;;;;;;;5.17;2.33;;;10.00;99.90;;;;;;5091411;28;20527;-84
2023/03/26 10:07:14;;;;;;;5.67;2.60;;;10.00;99.90;;;;;;5085835;28;20465;-84
2023/03/26 10:09:52;;;;;;;4.30;1.63;;;10.10;99.90;;;;;;5091148;28;20451;-85
2023/03/26 10:12:30;;;;;;;5.27;1.53;;;10.10;99.90;;;;;;5090182;28;20484;-84
2023/03/26 10:15:09;;;;;;;4.27;1.80;;;10.10;99.90;;;;;;5079018;28;20541;-84
2023/03/26 10:17:50;;;;;;;4.47;1.97;;;10.10;99.90;;;;;;5077414;28;20872;-85
2023/03/26 10:20:34;;;;;;;8.40;1.97;;;10.20;99.90;;;;;;5077496;28;20529;-84
2023/03/26 10:23:09;;;;;;;8.47;2.80;;;10.30;99.90;;;;;;5076958;28;20501;-84
2023/03/26 10:25:51;;;;;;;6.43;2.50;;;10.40;99.90;;;;;;5082648;28;20450;-85
2023/03/26 10:28:40;;;;;;;6.33;2.60;;;10.50;99.90;;;;;;5088868;28;20476;-84
2023/03/26 10:31:39;;;;;;;6.63;2.57;;;10.40;99.90;;;;;;5083933;28;20477;-83
2023/03/26 10:34:24;;;;;;;4.73;2.53;;;10.40;99.90;;;;;;5083337;28;20430;-84
2023/03/26 10:36:58;;;;;;;4.70;1.90;;;10.70;99.90;;;;;;5085844;28;20478;-84
2023/03/26 10:39:46;;;;;;;3.53;1.80;;;10.80;99.90;;;;;;5085447;28;20439;-83
2023/03/26 10:42:33;;;;;;;4.67;1.63;;;10.80;99.90;;;;;;5086910;28;20802;-81
2023/03/26 10:45:29;;;;;;;3.50;1.77;;;10.80;99.90;;;;;;5088801;28;20502;-84
2023/03/26 10:48:29;;;;;;;11.17;4.13;;;10.60;99.90;;;;;;5090343;28;20478;-83
2023/03/26 10:51:27;;;;;;;6.70;2.60;;;10.60;99.90;;;;;;5063703;28;20456;-84
2023/03/26 10:53:58;;;;;;;5.87;2.13;;;10.60;99.90;;;;;;5074315;28;20450;-85
2023/03/26 10:56:30;;;;;;;4.83;2.30;;;10.70;99.90;;;;;;5077488;28;20492;-85
2023/03/26 10:58:57;;;;;;;4.80;1.67;;;10.60;99.90;;;;;;5076623;28;20506;-84
2023/03/26 11:01:35;;;;;;;3.60;2.03;;;10.70;99.90;;;;;;5076263;28;20447;-84
2023/03/26 11:04:16;;;;;;;4.87;1.93;;;10.70;99.90;;;;;;5076823;28;20474;-81
2023/03/26 11:06:49;;;;;;;7.30;1.77;;;10.40;99.90;;;;;;5074895;28;20462;-83
2023/03/26 11:09:30;;;;;;;7.87;1.87;;;10.40;99.90;;;;;;5077073;28;20434;-85
2023/03/26 11:12:03;;;;;;;5.60;1.20;;;10.20;99.90;;;;;;5069377;28;20863;-86
2023/03/26 11:14:35;;;;;;;2.70;1.10;;;10.10;99.90;;;;;;5079802;28;20505;-86
2023/03/26 11:17:14;;;;;;;3.30;0.90;;;9.90;99.90;;;;;;5081457;28;20450;-84
2023/03/26 11:19:46;;;;;;;2.23;0.70;;;9.60;99.90;;;;;;5064484;28;20457;-84
2023/03/26 11:22:23;;;;;;;3.90;0.90;;;9.40;99.90;;;;;;5068223;28;20875;-87
2023/03/26 11:25:08;;;;;;;2.20;0.90;;;9.40;99.90;;;;;;5063832;28;20475;-87
2023/03/26 11:27:49;;;;;;;2.33;0.73;;;9.40;99.90;;;;;;5074982;28;20511;-85
2023/03/26 11:30:27;;;;;;;1.70;0.77;;;9.50;99.90;;;;;;5073469;28;20457;-86
2023/03/26 11:33:00;;;;;;;1.80;0.90;;;9.60;99.90;;;;;;5072155;28;20542;-82
2023/03/26 11:35:31;;;;;;;1.40;0.70;;;9.40;99.90;;;;;;5077655;28;20471;-82
2023/03/26 11:38:03;;;;;;;2.17;0.70;;;9.30;99.90;;;;;;5074482;28;20532;-82
2023/03/26 11:40:34;;;;;;;3.23;0.97;;;9.30;99.90;;;;;;5076307;28;20433;-80
2023/03/26 11:43:04;;;;;;;1.40;0.70;;;9.40;99.90;;;;;;5077691;28;20492;-82
2023/03/26 11:45:36;;;;;;;2.30;1.00;;;9.60;99.90;;;;;;5075839;28;20470;-82
2023/03/26 11:48:08;;;;;;;3.30;0.90;;;9.50;99.90;;;;;;5079836;28;20450;-82
2023/03/26 11:50:41;;;;;;;2.13;0.80;;;9.60;99.90;;;;;;5079208;28;20443;-81
2023/03/26 11:53:13;;;;;;;2.70;1.00;;;9.70;99.90;;;;;;5078913;28;20444;-82
2023/03/26 11:55:44;;;;;;;1.60;0.83;;;9.70;99.90;;;;;;5077396;28;20465;-83
2023/03/26 11:58:22;;;;;;;1.90;0.80;;;9.70;99.90;;;;;;5078872;28;20460;-82
2023/03/26 12:00:51;;;;;;;2.00;0.70;;;9.90;99.90;;;;;;5072962;28;20466;-83
2023/03/26 12:03:20;;;;;;;1.60;0.70;;;9.90;99.90;;;;;;5078044;28;20483;-83
2023/03/26 12:05:49;;;;;;;1.73;0.70;;;10.00;99.90;;;;;;5080117;28;20505;-83
2023/03/26 12:08:22;;;;;;;1.30;0.60;;;10.00;99.90;;;;;;5077549;28;20457;-84
2023/03/26 12:10:59;;;;;;;1.57;0.63;;;9.90;99.90;;;;;;5079318;28;21037;-82
2023/03/26 12:13:33;;;;;;;1.50;0.87;;;9.80;99.90;;;;;;5078514;28;20447;-83
2023/03/26 12:16:09;;;;;;;1.50;0.77;;;10.00;99.90;;;;;;5077496;28;20471;-82
2023/03/26 12:18:40;;;;;;;2.40;0.97;;;10.00;99.90;;;;;;5079065;28;20447;-82
2023/03/26 12:21:10;;;;;;;1.80;0.73;;;10.10;99.90;;;;;;5080992;28;20829;-82
2023/03/26 12:23:43;;;;;;;2.30;0.87;;;10.20;99.90;;;;;;5082742;28;20489;-82
2023/03/26 12:26:17;;;;;;;2.47;0.80;;;10.20;99.90;;;;;;5083171;28;20466;-84
2023/03/26 12:28:45;;;;;;;1.40;0.70;;;10.10;99.90;;;;;;5080410;28;20457;-82
2023/03/26 12:31:16;;;;;;;1.73;0.63;;;10.40;99.90;;;;;;5079601;28;20874;-82
2023/03/26 12:33:51;;;;;;;1.50;0.80;;;10.30;99.90;;;;;;5083346;28;20447;-83
2023/03/26 12:36:22;;;;;;;1.40;0.60;;;10.40;99.90;;;;;;5078013;28;20473;-83
2023/03/26 12:38:49;;;;;;;1.90;0.80;;;10.50;99.90;;;;;;5082695;28;20461;-81
2023/03/26 12:41:17;;;;;;;2.27;0.60;;;10.60;99.90;;;;;;5080767;28;20478;-83
2023/03/26 12:43:46;;;;;;;1.63;0.80;;;10.70;99.90;;;;;;5078665;28;20547;-83
2023/03/26 12:46:23;;;;;;;1.80;0.70;;;10.80;99.90;;;;;;5080928;28;20569;-84
2023/03/26 12:48:52;;;;;;;1.40;0.70;;;10.90;99.90;;;;;;5097846;28;20454;-81
2023/03/26 12:51:32;;;;;;;1.50;0.60;;;11.00;99.90;;;;;;5081099;28;20519;-81
2023/03/26 12:54:23;;;;;;;2.63;0.87;;;11.20;99.90;;;;;;5064647;28;20952;-81
2023/03/26 12:57:04;;;;;;;1.90;0.80;;;11.20;99.90;;;;;;5079142;28;20475;-81
2023/03/26 12:59:56;;;;;;;1.73;0.97;;;11.30;99.90;;;;;;5067176;28;20460;-81
2023/03/26 13:02:48;;;;;;;1.87;1.40;;;11.50;99.90;;;;;;5062103;28;20459;-82
2023/03/26 13:05:30;;;;;;;2.93;1.53;;;11.60;99.90;;;;;;5061780;28;20533;-83
2023/03/26 13:08:06;;;;;;;1.60;0.70;;;11.80;99.90;;;;;;5075085;28;20542;-85
2023/03/26 13:10:49;;;;;;;4.20;2.43;;;12.10;99.90;;;;;;5071601;28;20549;-84
2023/03/26 13:13:46;;;;;;;1.60;1.00;;;12.50;99.90;;;;;;5057250;28;20531;-84
2023/03/26 13:16:22;;;;;;;2.13;0.97;;;13.00;99.90;;;;;;5075942;28;20475;-83
2023/03/26 13:18:54;;;;;;;2.13;1.00;;;13.40;99.90;;;;;;5074744;28;20554;-85
2023/03/26 13:21:33;;;;;;;1.60;0.87;;;14.00;99.90;;;;;;5070630;28;20818;-84
2023/03/26 13:24:07;;;;;;;1.90;0.83;;;14.60;99.90;;;;;;5062236;28;20575;-85